createdAt,value
2018-12-12T00:00:00.649Z,45.57
2018-12-12T00:02:28.393Z,41.27
2018-12-12T00:04:56.176Z,47.57
2018-12-12T00:07:23.817Z,46.90
2018-12-12T00:09:51.505Z,43.27
2018-12-12T00:12:19.336Z,39.50
2018-12-12T00:14:47.037Z,47.10
2018-12-12T00:17:14.791Z,44.00
2018-12-12T00:19:42.563Z,42.07
2018-12-12T00:22:10.234Z,42.67
2018-12-12T00:24:37.916Z,39.73
2018-12-12T00:27:05.592Z,48.00
2018-12-12T00:29:33.307Z,48.90
2018-12-12T00:32:01.082Z,44.23
2018-12-12T00:34:28.717Z,40.00
2018-12-12T00:36:56.352Z,47.47
2018-12-12T00:39:24.047Z,41.70
2018-12-12T00:41:51.682Z,34.97
2018-12-12T00:44:19.337Z,39.80
2018-12-12T00:46:47.152Z,37.30
2018-12-12T00:49:15.089Z,44.83
2018-12-12T00:51:42.902Z,51.00
2018-12-12T00:54:10.617Z,44.67
2018-12-12T00:56:38.293Z,42.87
2018-12-12T00:59:06.147Z,34.90
2018-12-12T01:01:33.944Z,35.17
2018-12-12T01:04:01.617Z,39.43
2018-12-12T01:06:29.373Z,41.60
2018-12-12T01:08:57.011Z,35.40
2018-12-12T01:11:30.263Z,29.93
2018-12-12T01:13:57.937Z,32.57
2018-12-12T01:16:25.772Z,39.23
2018-12-12T01:18:53.548Z,36.50
2018-12-12T01:21:21.243Z,38.70
2018-12-12T01:23:48.979Z,32.00
2018-12-12T01:26:16.674Z,40.83
2018-12-12T01:28:44.448Z,32.60
2018-12-12T01:31:12.224Z,33.70
2018-12-12T01:33:39.958Z,30.10
2018-12-12T01:36:07.733Z,33.30
2018-12-12T01:38:35.389Z,29.80
2018-12-12T01:41:03.164Z,26.00
2018-12-12T01:43:30.821Z,29.10
2018-12-12T01:45:58.467Z,25.43
2018-12-12T01:48:26.249Z,26.67
2018-12-12T01:50:53.927Z,38.00
2018-12-12T01:53:21.679Z,20.53
2018-12-12T01:55:49.535Z,28.93
2018-12-12T01:58:17.197Z,24.93
2018-12-12T02:00:44.844Z,28.13
2018-12-12T02:03:12.581Z,29.03
2018-12-12T02:05:40.260Z,29.63
2018-12-12T02:08:08.031Z,38.83
2018-12-12T02:10:36.001Z,47.30
2018-12-12T02:13:16.001Z,38.43
2018-12-12T02:15:43.695Z,30.00
2018-12-12T02:18:11.470Z,40.00
2018-12-12T02:20:39.226Z,34.00
2018-12-12T02:23:06.980Z,68.33
2018-12-12T02:25:34.635Z,49.70
2018-12-12T02:28:02.351Z,57.03
2018-12-12T02:30:30.048Z,39.83
2018-12-12T02:32:57.761Z,35.90
2018-12-12T02:35:25.498Z,52.23
2018-12-12T02:40:55.404Z,40.53
2018-12-12T02:43:23.220Z,41.97
2018-12-12T02:45:50.941Z,45.53
2018-12-12T02:48:19.130Z,36.13
2018-12-12T02:50:46.826Z,45.40
2018-12-12T02:53:14.501Z,31.77
2018-12-12T02:55:42.194Z,43.50
2018-12-12T02:58:09.851Z,40.53
2018-12-12T03:00:37.485Z,48.60
2018-12-12T03:03:05.162Z,51.10
2018-12-12T03:05:32.957Z,38.67
2018-12-12T03:08:00.711Z,40.53
2018-12-12T03:10:28.365Z,42.23
2018-12-12T03:12:56.024Z,29.53
2018-12-12T03:17:50.516Z,38.03
2018-12-12T03:20:18.267Z,43.17
2018-12-12T03:22:46.063Z,32.23
2018-12-12T03:25:13.961Z,39.83
2018-12-12T03:27:41.672Z,29.57
2018-12-12T03:30:09.506Z,30.63
2018-12-12T03:32:37.304Z,31.20
2018-12-12T03:35:05.217Z,31.37
2018-12-12T03:37:32.918Z,31.23
2018-12-12T03:40:00.949Z,34.03
2018-12-12T03:42:29.162Z,31.20
2018-12-12T03:44:56.858Z,27.00
2018-12-12T03:47:24.593Z,36.33
2018-12-12T03:49:52.268Z,30.97
2018-12-12T03:52:20.003Z,26.80
2018-12-12T03:54:47.678Z,32.80
2018-12-12T03:57:15.356Z,23.40
2018-12-12T03:59:43.214Z,28.73
2018-12-12T04:02:11.103Z,28.07
2018-12-12T04:04:38.881Z,27.50
2018-12-12T04:07:06.554Z,20.80
2018-12-12T04:09:34.239Z,25.20
2018-12-12T04:12:02.049Z,22.20
2018-12-12T04:14:29.719Z,30.17
2018-12-12T04:16:57.416Z,30.70
2018-12-12T04:19:25.480Z,24.30
2018-12-12T04:21:53.322Z,31.40
2018-12-12T04:24:22.160Z,26.43
2018-12-12T04:26:49.893Z,24.77
2018-12-12T04:29:17.543Z,23.60
2018-12-12T04:31:46.157Z,26.57
2018-12-12T04:34:14.565Z,24.33
2018-12-12T04:36:43.080Z,26.30
2018-12-12T04:39:10.792Z,24.93
2018-12-12T04:41:38.523Z,24.60
2018-12-12T04:44:06.724Z,27.17
2018-12-12T04:46:34.354Z,27.17
2018-12-12T04:49:02.212Z,28.57
2018-12-12T04:51:30.523Z,28.03
2018-12-12T04:53:58.218Z,27.73
2018-12-12T04:56:25.858Z,33.60
2018-12-12T04:58:54.467Z,42.33
2018-12-12T05:01:22.143Z,27.73
2018-12-12T05:03:50.121Z,34.57
2018-12-12T05:06:18.492Z,30.53
2018-12-12T05:08:46.409Z,28.53
2018-12-12T05:11:14.142Z,31.90
2018-12-12T05:13:41.837Z,37.33
2018-12-12T05:16:09.573Z,26.83
2018-12-12T05:18:37.427Z,33.70
2018-12-12T05:21:05.111Z,31.60
2018-12-12T05:23:32.897Z,31.33
2018-12-12T05:26:00.553Z,38.97
2018-12-12T05:28:28.227Z,34.90
2018-12-12T05:30:55.903Z,32.47
2018-12-12T05:33:23.601Z,31.87
2018-12-12T05:35:51.366Z,31.13
2018-12-12T05:38:19.119Z,37.10
2018-12-12T05:40:46.777Z,31.67
2018-12-12T05:43:14.498Z,29.60
2018-12-12T05:45:42.515Z,39.90
2018-12-12T05:48:10.307Z,35.77
2018-12-12T05:50:38.243Z,37.00
2018-12-12T05:53:05.900Z,38.07
2018-12-12T05:55:33.554Z,36.50
2018-12-12T05:58:01.429Z,36.53
2018-12-12T06:00:29.144Z,39.83
2018-12-12T06:02:56.878Z,41.00
2018-12-12T06:05:24.533Z,43.73
2018-12-12T06:07:52.209Z,42.27
2018-12-12T06:10:20.025Z,50.30
2018-12-12T06:12:47.607Z,40.67
2018-12-12T06:15:15.222Z,43.30
2018-12-12T06:17:42.834Z,45.43
2018-12-12T06:20:10.484Z,38.63
2018-12-12T06:22:38.303Z,56.00
2018-12-12T06:25:05.900Z,48.07
2018-12-12T06:27:33.487Z,49.17
2018-12-12T06:30:01.103Z,46.57
2018-12-12T06:32:28.692Z,42.80
2018-12-12T06:34:56.293Z,60.70
2018-12-12T06:37:23.874Z,54.60
2018-12-12T06:39:51.486Z,61.20
2018-12-12T06:42:19.105Z,56.23
2018-12-12T06:44:46.710Z,53.53
2018-12-12T06:47:14.305Z,66.63
2018-12-12T06:49:41.913Z,66.60
2018-12-12T06:52:09.514Z,78.30
2018-12-12T06:54:37.113Z,61.37
2018-12-12T06:57:04.692Z,57.63
2018-12-12T06:59:32.303Z,55.30
2018-12-12T07:02:00.016Z,56.97
2018-12-12T07:04:27.658Z,63.33
2018-12-12T07:06:55.775Z,74.40
2018-12-12T07:09:23.373Z,56.40
2018-12-12T07:11:50.954Z,63.80
2018-12-12T07:14:18.568Z,71.67
2018-12-12T07:16:46.157Z,68.43
2018-12-12T07:19:13.768Z,71.20
2018-12-12T07:21:41.355Z,76.40
2018-12-12T07:24:08.965Z,71.00
2018-12-12T07:26:36.609Z,55.17
2018-12-12T07:29:04.236Z,49.87
2018-12-12T07:31:31.818Z,75.80
2018-12-12T07:34:01.122Z,81.17
2018-12-12T07:36:29.068Z,73.17
2018-12-12T07:38:56.686Z,57.07
2018-12-12T07:41:24.758Z,75.40
2018-12-12T07:43:52.483Z,73.43
2018-12-12T07:46:21.087Z,62.33
2018-12-12T07:48:48.683Z,48.33
2018-12-12T07:51:16.282Z,61.30
2018-12-12T07:53:43.888Z,62.63
2018-12-12T07:56:11.504Z,66.73
2018-12-12T07:58:39.094Z,59.27
2018-12-12T08:01:06.813Z,47.87
2018-12-12T08:03:34.408Z,49.80
2018-12-12T08:06:02.051Z,48.97
2018-12-12T08:08:29.643Z,45.50
2018-12-12T08:10:57.253Z,48.33
2018-12-12T08:13:24.861Z,32.10
2018-12-12T08:15:52.532Z,25.67
2018-12-12T08:18:20.118Z,22.93
2018-12-12T08:20:47.722Z,27.43
2018-12-12T08:23:15.645Z,23.80
2018-12-12T08:25:43.481Z,20.43
2018-12-12T08:28:11.131Z,25.63
2018-12-12T08:30:38.729Z,27.40
2018-12-12T08:33:11.085Z,29.30
2018-12-12T08:35:35.983Z,29.57
2018-12-12T08:38:03.564Z,32.53
2018-12-12T08:40:31.171Z,31.17
2018-12-12T08:42:58.776Z,30.83
2018-12-12T08:45:26.373Z,32.67
2018-12-12T08:47:53.963Z,29.47
2018-12-12T08:50:21.568Z,28.40
2018-12-12T08:52:49.158Z,32.10
2018-12-12T08:55:17.747Z,27.33
2018-12-12T08:57:45.673Z,30.63
2018-12-12T09:00:13.278Z,32.83
2018-12-12T09:02:40.873Z,31.30
2018-12-12T09:05:08.478Z,34.63
2018-12-12T09:07:36.075Z,29.10
2018-12-12T09:10:05.075Z,24.87
2018-12-12T09:12:32.720Z,22.77
2018-12-12T09:15:00.326Z,30.03
2018-12-12T09:17:27.912Z,26.50
2018-12-12T09:19:55.557Z,25.83
2018-12-12T09:22:23.187Z,33.60
2018-12-12T09:24:50.800Z,28.97
2018-12-12T09:27:18.387Z,30.87
2018-12-12T09:29:46.025Z,26.33
2018-12-12T09:32:13.621Z,23.30
2018-12-12T09:34:41.206Z,29.33
2018-12-12T09:37:08.824Z,36.57
2018-12-12T09:39:36.444Z,33.17
2018-12-12T09:42:04.057Z,27.93
2018-12-12T09:44:31.659Z,31.60
2018-12-12T09:46:59.264Z,28.10
2018-12-12T09:49:26.845Z,25.80
2018-12-12T09:51:54.521Z,37.87
2018-12-12T09:54:22.160Z,34.13
2018-12-12T09:56:49.774Z,27.37
2018-12-12T09:59:17.364Z,30.60
2018-12-12T10:01:45.061Z,27.70
2018-12-12T10:04:12.689Z,34.47
2018-12-12T10:06:40.295Z,37.17
2018-12-12T10:09:08.048Z,25.77
2018-12-12T10:11:35.668Z,30.90
2018-12-12T10:14:03.376Z,32.03
2018-12-12T10:16:31.017Z,30.07
2018-12-12T10:18:58.976Z,27.83
2018-12-12T10:21:26.944Z,25.90
2018-12-12T10:23:54.549Z,24.77
2018-12-12T10:26:22.204Z,26.43
2018-12-12T10:28:49.869Z,28.60
2018-12-12T10:31:17.742Z,26.03
2018-12-12T10:33:45.328Z,24.43
2018-12-12T10:36:12.936Z,26.80
2018-12-12T10:38:40.539Z,27.83
2018-12-12T10:41:08.155Z,29.00
2018-12-12T10:43:35.737Z,22.23
2018-12-12T10:46:03.347Z,29.97
2018-12-12T10:48:30.956Z,24.70
2018-12-12T10:50:58.562Z,20.27
2018-12-12T10:53:26.146Z,17.47
2018-12-12T10:55:53.782Z,10.67
2018-12-12T10:58:21.359Z,6.43
2018-12-12T11:00:54.631Z,4.93
2018-12-12T11:03:27.890Z,4.93
2018-12-12T11:05:55.492Z,3.13
2018-12-12T11:08:23.082Z,2.70
2018-12-12T11:10:50.701Z,3.57
2018-12-12T11:13:18.282Z,3.00
2018-12-12T11:15:45.853Z,6.60
2018-12-12T11:18:13.442Z,5.97
2018-12-12T11:20:41.023Z,8.80
2018-12-12T11:23:08.653Z,3.87
2018-12-12T11:25:36.253Z,5.33
2018-12-12T11:28:03.887Z,4.83
2018-12-12T11:30:31.469Z,6.80
2018-12-12T11:32:59.077Z,9.43
2018-12-12T11:35:26.679Z,6.23
2018-12-12T11:37:54.279Z,2.50
2018-12-12T11:40:21.846Z,1.60
2018-12-12T11:42:49.497Z,3.83
2018-12-12T11:45:17.069Z,6.53
2018-12-12T11:47:44.912Z,4.40
2018-12-12T11:50:12.483Z,3.97
2018-12-12T11:52:40.083Z,7.50
2018-12-12T11:55:07.665Z,3.33
2018-12-12T11:57:35.510Z,3.67
2018-12-12T12:00:04.033Z,8.23
2018-12-12T12:02:35.639Z,6.13
2018-12-12T12:05:01.256Z,5.27
2018-12-12T12:07:28.859Z,7.37
2018-12-12T12:09:56.439Z,4.77
2018-12-12T12:12:24.061Z,3.73
2018-12-12T12:14:51.770Z,4.07
2018-12-12T12:17:19.528Z,13.57
2018-12-12T12:19:47.100Z,9.37
2018-12-12T12:22:14.703Z,7.93
2018-12-12T12:24:42.276Z,16.80
2018-12-12T12:27:09.882Z,4.23
2018-12-12T12:29:37.470Z,5.07
2018-12-12T12:32:05.085Z,11.70
2018-12-12T12:34:32.652Z,6.00
2018-12-12T12:37:00.267Z,8.40
2018-12-12T12:39:27.837Z,7.53
2018-12-12T12:41:55.436Z,11.60
2018-12-12T12:44:23.018Z,6.70
2018-12-12T12:46:50.698Z,6.43
2018-12-12T12:49:18.375Z,8.60
2018-12-12T12:51:45.962Z,7.50
2018-12-12T12:54:13.574Z,16.60
2018-12-12T12:56:41.151Z,9.93
2018-12-12T12:59:08.771Z,10.73
2018-12-12T13:01:36.357Z,10.80
2018-12-12T13:04:09.491Z,11.13
2018-12-12T13:06:33.581Z,15.03
2018-12-12T13:09:01.186Z,15.03
2018-12-12T13:11:28.868Z,17.40
2018-12-12T13:13:56.511Z,14.50
2018-12-12T13:16:24.111Z,18.53
2018-12-12T13:18:51.727Z,14.37
2018-12-12T13:21:19.305Z,12.40
2018-12-12T13:23:46.908Z,15.60
2018-12-12T13:26:14.488Z,16.70
2018-12-12T13:28:42.179Z,15.13
2018-12-12T13:31:09.779Z,18.70
2018-12-12T13:33:37.380Z,16.10
2018-12-12T13:36:04.972Z,11.63
2018-12-12T13:38:32.626Z,16.13
2018-12-12T13:41:00.210Z,14.90
2018-12-12T13:43:27.819Z,12.20
2018-12-12T13:45:55.422Z,18.50
2018-12-12T13:48:23.133Z,14.67
2018-12-12T13:50:50.824Z,15.00
2018-12-12T13:53:18.448Z,20.73
2018-12-12T13:55:46.039Z,14.87
2018-12-12T13:58:13.639Z,14.83
2018-12-12T14:00:41.238Z,13.67
2018-12-12T14:03:08.850Z,14.70
2018-12-12T14:05:36.440Z,20.60
2018-12-12T14:08:04.069Z,14.10
2018-12-12T14:10:31.659Z,25.93
2018-12-12T14:12:59.260Z,15.83
2018-12-12T14:15:26.846Z,22.97
2018-12-12T14:17:54.504Z,20.57
2018-12-12T14:20:22.173Z,12.50
2018-12-12T14:22:49.859Z,21.87
2018-12-12T14:25:17.456Z,18.10
2018-12-12T14:27:45.052Z,16.80
2018-12-12T14:30:12.903Z,14.90
2018-12-12T14:32:40.480Z,16.97
2018-12-12T14:35:08.089Z,16.77
2018-12-12T14:37:35.671Z,20.63
2018-12-12T14:40:03.541Z,23.23
2018-12-12T14:42:31.129Z,19.33
2018-12-12T14:44:58.738Z,24.23
2018-12-12T14:47:26.360Z,27.27
2018-12-12T14:49:53.982Z,15.80
2018-12-12T14:52:21.601Z,18.13
2018-12-12T14:54:49.208Z,23.93
2018-12-12T14:57:16.794Z,26.73
2018-12-12T14:59:44.407Z,22.03
2018-12-12T15:02:11.992Z,19.10
2018-12-12T15:04:39.602Z,28.03
2018-12-12T15:07:07.183Z,30.73
2018-12-12T15:09:34.787Z,21.20
2018-12-12T15:12:02.401Z,29.73
2018-12-12T15:14:30.045Z,25.80
2018-12-12T15:16:57.644Z,25.13
2018-12-12T15:19:25.255Z,30.40
2018-12-12T15:21:52.860Z,35.43
2018-12-12T15:24:20.465Z,31.80
2018-12-12T15:26:48.065Z,21.20
2018-12-12T15:29:15.701Z,17.73
2018-12-12T15:31:43.350Z,16.37
2018-12-12T15:34:10.954Z,15.17
2018-12-12T15:36:38.544Z,16.60
2018-12-12T15:39:07.306Z,19.13
2018-12-12T15:41:35.096Z,16.93
2018-12-12T15:44:02.850Z,16.80
2018-12-12T15:46:30.466Z,21.70
2018-12-12T15:48:58.071Z,20.13
2018-12-12T15:51:25.665Z,17.37
2018-12-12T15:53:53.278Z,24.00
2018-12-12T15:56:20.860Z,24.07
2018-12-12T15:58:48.469Z,18.43
2018-12-12T16:01:16.059Z,32.57
2018-12-12T16:03:43.657Z,32.20
2018-12-12T16:06:11.259Z,27.40
2018-12-12T16:08:38.867Z,21.80
2018-12-12T16:11:08.394Z,24.73
2018-12-12T16:13:36.142Z,24.33
2018-12-12T16:16:03.761Z,32.13
2018-12-12T16:18:31.371Z,23.87
2018-12-12T16:21:00.257Z,26.13
2018-12-12T16:23:27.989Z,15.63
2018-12-12T16:25:55.682Z,19.40
2018-12-12T16:28:23.355Z,15.93
2018-12-12T16:30:51.034Z,15.17
2018-12-12T16:33:18.648Z,15.63
2018-12-12T16:35:46.292Z,18.63
2018-12-12T16:38:13.939Z,24.30
2018-12-12T16:40:41.620Z,25.50
2018-12-12T16:43:09.290Z,21.80
2018-12-12T16:45:36.936Z,27.27
2018-12-12T16:48:04.554Z,22.57
2018-12-12T16:50:32.227Z,24.50
2018-12-12T16:52:59.910Z,24.33
2018-12-12T16:55:27.620Z,22.23
2018-12-12T16:57:55.260Z,14.30
2018-12-12T17:00:22.915Z,20.33
2018-12-12T17:02:50.531Z,22.60
2018-12-12T17:05:18.174Z,18.70
2018-12-12T17:07:45.823Z,25.33
2018-12-12T17:10:13.555Z,20.67
2018-12-12T17:12:41.290Z,24.77
2018-12-12T17:15:09.347Z,20.13
2018-12-12T17:17:36.962Z,21.17
2018-12-12T17:20:05.980Z,29.93
2018-12-12T17:22:33.620Z,23.63
2018-12-12T17:25:01.267Z,21.90
2018-12-12T17:27:28.922Z,19.03
2018-12-12T17:29:56.595Z,17.20
2018-12-12T17:32:24.213Z,20.20
2018-12-12T17:34:51.878Z,24.13
2018-12-12T17:37:19.516Z,17.47
2018-12-12T17:39:47.158Z,21.43
2018-12-12T17:42:14.790Z,20.47
2018-12-12T17:44:42.431Z,18.60
2018-12-12T17:47:10.145Z,16.90
2018-12-12T17:49:37.789Z,19.17
2018-12-12T17:52:05.415Z,24.30
2018-12-12T17:54:33.081Z,17.23
2018-12-12T17:57:00.943Z,16.90
2018-12-12T17:59:28.611Z,17.30
2018-12-12T18:01:56.272Z,20.20
2018-12-12T18:04:23.931Z,20.23
2018-12-12T18:06:51.582Z,18.47
2018-12-12T18:09:19.190Z,17.67
2018-12-12T18:11:46.825Z,15.20
2018-12-12T18:14:14.467Z,17.63
2018-12-12T18:16:42.114Z,22.50
2018-12-12T18:19:09.723Z,17.40
2018-12-12T18:21:37.383Z,16.50
2018-12-12T18:24:05.018Z,17.10
2018-12-12T18:26:32.700Z,17.53
2018-12-12T18:29:00.311Z,17.10
2018-12-12T18:31:27.980Z,17.93
2018-12-12T18:33:55.655Z,17.07
2018-12-12T18:36:23.351Z,15.17
2018-12-12T18:38:50.977Z,15.63
2018-12-12T18:41:18.598Z,15.10
2018-12-12T18:43:46.267Z,15.37
2018-12-12T18:46:15.379Z,15.30
2018-12-12T18:48:43.225Z,17.60
2018-12-12T18:51:10.867Z,14.63
2018-12-12T18:53:38.515Z,14.70
2018-12-12T18:56:06.192Z,14.90
2018-12-12T18:58:33.847Z,13.70
2018-12-12T19:01:01.522Z,15.93
2018-12-12T19:03:29.157Z,15.13
2018-12-12T19:05:56.833Z,13.57
2018-12-12T19:08:24.468Z,14.47
2018-12-12T19:10:52.111Z,16.60
2018-12-12T19:13:19.739Z,13.47
2018-12-12T19:15:47.373Z,13.40
2018-12-12T19:18:15.061Z,14.77
2018-12-12T19:20:42.532Z,11.70
2018-12-12T19:23:10.159Z,13.53
2018-12-12T19:25:37.911Z,11.17
2018-12-12T19:28:05.526Z,13.63
2018-12-12T19:30:33.147Z,11.97
2018-12-12T19:33:00.782Z,12.53
2018-12-12T19:35:34.679Z,9.17
2018-12-12T19:37:58.130Z,13.13
2018-12-12T19:40:25.786Z,10.90
2018-12-12T19:42:53.421Z,12.10
2018-12-12T19:45:21.072Z,12.93
2018-12-12T19:47:48.741Z,12.33
2018-12-12T19:50:16.346Z,16.80
2018-12-12T19:52:44.032Z,12.53
2018-12-12T19:55:11.650Z,12.53
2018-12-12T19:57:39.297Z,15.87
2018-12-12T20:00:07.321Z,14.70
2018-12-12T20:02:34.982Z,12.73
2018-12-12T20:05:02.619Z,13.00
2018-12-12T20:07:30.280Z,12.13
2018-12-12T20:09:57.919Z,14.00
2018-12-12T20:12:25.582Z,12.43
2018-12-12T20:14:53.257Z,17.20
2018-12-12T20:17:20.963Z,20.10
2018-12-12T20:19:48.599Z,12.60
2018-12-12T20:22:16.222Z,12.23
2018-12-12T20:24:43.839Z,18.33
2018-12-12T20:27:11.576Z,11.93
2018-12-12T20:29:39.217Z,12.97
2018-12-12T20:32:06.856Z,12.17
2018-12-12T20:34:34.504Z,19.03
2018-12-12T20:37:02.155Z,10.60
2018-12-12T20:39:29.779Z,18.33
2018-12-12T20:41:57.425Z,13.00
2018-12-12T20:44:25.053Z,10.20
2018-12-12T20:46:52.769Z,18.90
2018-12-12T20:49:20.377Z,14.43
2018-12-12T20:51:48.011Z,15.20
2018-12-12T20:54:15.643Z,11.63
2018-12-12T20:56:43.293Z,16.00
2018-12-12T20:59:10.970Z,12.13
2018-12-12T21:01:38.615Z,12.13
2018-12-12T21:04:06.245Z,12.67
2018-12-12T21:06:33.937Z,11.90
2018-12-12T21:09:01.553Z,15.23
2018-12-12T21:11:29.205Z,17.50
2018-12-12T21:13:56.953Z,13.63
2018-12-12T21:16:24.635Z,15.90
2018-12-12T21:18:52.292Z,12.80
2018-12-12T21:21:19.941Z,11.40
2018-12-12T21:23:47.581Z,10.60
2018-12-12T21:26:15.665Z,14.20
2018-12-12T21:28:43.291Z,8.57
2018-12-12T21:31:10.908Z,10.13
2018-12-12T21:33:38.562Z,12.87
2018-12-12T21:36:06.188Z,10.03
2018-12-12T21:38:33.830Z,9.80
2018-12-12T21:41:01.427Z,11.43
2018-12-12T21:43:29.081Z,10.03
2018-12-12T21:45:56.696Z,8.63
2018-12-12T21:48:24.351Z,9.73
2018-12-12T21:50:52.030Z,8.80
2018-12-12T21:53:19.641Z,13.53
2018-12-12T21:55:47.316Z,9.70
2018-12-12T21:58:14.972Z,11.73
2018-12-12T22:00:42.579Z,9.67
2018-12-12T22:03:10.295Z,17.50
2018-12-12T22:05:37.917Z,21.67
2018-12-12T22:08:05.615Z,14.30
2018-12-12T22:10:33.803Z,18.13
2018-12-12T22:13:01.449Z,19.90
2018-12-12T22:15:29.097Z,19.40
2018-12-12T22:17:56.716Z,15.13
2018-12-12T22:20:24.367Z,17.57
2018-12-12T22:22:52.000Z,15.17
2018-12-12T22:25:19.601Z,14.67
2018-12-12T22:27:47.255Z,19.60
2018-12-12T22:30:14.939Z,19.57
2018-12-12T22:32:42.584Z,18.17
2018-12-12T22:35:10.198Z,17.50
2018-12-12T22:37:37.828Z,16.53
2018-12-12T22:40:05.484Z,15.63
2018-12-12T22:42:33.163Z,20.20
2018-12-12T22:45:00.833Z,19.77
2018-12-12T22:47:28.493Z,17.63
2018-12-12T22:49:56.129Z,25.33
2018-12-12T22:52:23.844Z,15.60
2018-12-12T22:54:51.518Z,13.97
2018-12-12T22:57:19.206Z,16.57
2018-12-12T22:59:46.869Z,20.33
2018-12-12T23:02:14.564Z,17.23
2018-12-12T23:04:42.240Z,17.97
2018-12-12T23:07:09.947Z,19.43
2018-12-12T23:09:37.616Z,17.07
2018-12-12T23:12:05.400Z,18.27
2018-12-12T23:14:33.037Z,15.60
2018-12-12T23:17:00.655Z,19.30
2018-12-12T23:19:28.342Z,19.20
2018-12-12T23:21:56.004Z,28.00
2018-12-12T23:24:25.193Z,26.77
2018-12-12T23:26:52.968Z,28.03
2018-12-12T23:29:20.607Z,26.00
2018-12-12T23:31:48.240Z,27.77
2018-12-12T23:34:15.904Z,30.00
2018-12-12T23:36:43.517Z,28.40
2018-12-12T23:39:11.334Z,24.13
2018-12-12T23:41:38.983Z,21.63
2018-12-12T23:44:06.660Z,25.07
2018-12-12T23:46:34.449Z,25.43
2018-12-12T23:49:02.110Z,24.57
2018-12-12T23:51:29.748Z,29.60
2018-12-12T23:53:57.421Z,24.77
2018-12-12T23:56:25.096Z,24.87
2018-12-12T23:58:52.790Z,28.63
